createdAt,value
2022-10-04T00:00:49.651Z,78.80
2022-10-04T00:03:43.780Z,78.90
2022-10-04T00:06:32.713Z,78.90
2022-10-04T00:09:25.479Z,79.40
2022-10-04T00:12:23.103Z,78.90
2022-10-04T00:15:21.761Z,78.90
2022-10-04T00:18:25.477Z,78.80
2022-10-04T00:21:13.955Z,78.90
2022-10-04T00:24:11.958Z,78.90
2022-10-04T00:27:22.193Z,78.90
2022-10-04T00:30:22.854Z,78.90
2022-10-04T00:33:11.270Z,78.90
2022-10-04T00:35:59.840Z,79.00
2022-10-04T00:39:04.613Z,79.00
2022-10-04T00:42:04.721Z,79.00
2022-10-04T00:44:59.639Z,79.00
2022-10-04T00:48:39.126Z,79.10
2022-10-04T00:51:32.666Z,79.00
2022-10-04T00:54:25.265Z,79.00
2022-10-04T00:57:20.124Z,79.10
2022-10-04T01:00:15.345Z,79.00
2022-10-04T01:03:08.638Z,79.00
2022-10-04T01:06:01.238Z,79.10
2022-10-04T01:08:53.091Z,79.10
2022-10-04T01:11:43.846Z,79.10
2022-10-04T01:14:41.195Z,79.10
2022-10-04T01:17:31.333Z,79.10
2022-10-04T01:20:34.055Z,79.10
2022-10-04T01:23:43.523Z,79.10
2022-10-04T01:26:41.987Z,79.10
2022-10-04T01:29:31.827Z,79.10
2022-10-04T01:32:20.460Z,79.10
2022-10-04T01:35:11.379Z,79.10
2022-10-04T01:37:59.794Z,79.10
2022-10-04T01:40:55.186Z,79.10
2022-10-04T01:43:47.042Z,79.10
2022-10-04T01:46:38.588Z,79.10
2022-10-04T01:49:32.461Z,79.10
2022-10-04T01:52:25.352Z,79.10
2022-10-04T01:55:18.425Z,79.10
2022-10-04T01:58:12.930Z,79.10
2022-10-04T02:01:10.706Z,79.10
2022-10-04T02:04:04.027Z,79.20
2022-10-04T02:06:56.345Z,79.20
2022-10-04T02:09:48.059Z,79.20
2022-10-04T02:12:38.711Z,79.10
2022-10-04T02:15:28.818Z,79.20
2022-10-04T02:18:20.662Z,79.20
2022-10-04T02:21:09.569Z,79.10
2022-10-04T02:23:58.378Z,79.10
2022-10-04T02:26:51.803Z,79.20
2022-10-04T02:29:40.179Z,79.20
2022-10-04T02:32:49.678Z,79.20
2022-10-04T02:35:44.470Z,79.20
2022-10-04T02:38:37.632Z,79.20
2022-10-04T02:41:29.991Z,79.20
2022-10-04T02:44:21.703Z,79.20
2022-10-04T02:47:15.503Z,79.30
2022-10-04T02:50:10.531Z,79.30
2022-10-04T02:53:02.715Z,79.30
2022-10-04T02:55:50.826Z,79.30
2022-10-04T02:58:40.226Z,79.30
2022-10-04T03:01:37.710Z,79.30
2022-10-04T03:04:30.170Z,79.40
2022-10-04T03:07:21.415Z,79.40
2022-10-04T03:10:12.530Z,79.40
2022-10-04T03:13:01.316Z,79.40
2022-10-04T03:15:50.680Z,79.40
2022-10-04T03:18:39.953Z,79.40
2022-10-04T03:21:29.019Z,79.40
2022-10-04T03:24:23.132Z,79.40
2022-10-04T03:27:17.821Z,79.40
2022-10-04T03:30:07.668Z,79.90
2022-10-04T03:32:56.399Z,79.40
2022-10-04T03:35:46.611Z,79.40
2022-10-04T03:38:36.972Z,79.40
2022-10-04T03:41:27.292Z,79.40
2022-10-04T03:44:18.218Z,79.40
2022-10-04T03:47:12.530Z,79.50
2022-10-04T03:50:04.449Z,79.40
2022-10-04T03:52:57.053Z,79.40
2022-10-04T03:55:47.056Z,79.40
2022-10-04T03:58:37.948Z,79.50
2022-10-04T04:01:37.819Z,79.40
2022-10-04T04:04:36.052Z,79.50
2022-10-04T04:07:31.146Z,79.40
2022-10-04T04:10:24.836Z,79.50
2022-10-04T04:13:22.887Z,79.50
2022-10-04T04:16:13.230Z,79.50
2022-10-04T04:19:05.708Z,79.50
2022-10-04T04:21:57.087Z,79.50
2022-10-04T04:24:46.958Z,79.50
2022-10-04T04:27:40.064Z,79.50
2022-10-04T04:30:28.200Z,79.60
2022-10-04T04:33:27.357Z,79.60
2022-10-04T04:36:17.093Z,79.60
2022-10-04T04:39:27.187Z,79.60
2022-10-04T04:42:18.180Z,79.70
2022-10-04T04:45:19.151Z,79.70
2022-10-04T04:48:07.661Z,79.70
2022-10-04T04:51:00.108Z,79.70
2022-10-04T04:53:49.999Z,79.60
2022-10-04T04:56:38.966Z,79.70
2022-10-04T04:59:29.219Z,79.60
2022-10-04T05:02:35.716Z,79.70
2022-10-04T05:05:26.658Z,79.70
2022-10-04T05:08:20.222Z,79.70
2022-10-04T05:11:16.565Z,79.70
2022-10-04T05:14:08.331Z,79.70
2022-10-04T05:16:57.073Z,79.70
2022-10-04T05:19:45.339Z,79.70
2022-10-04T05:22:35.063Z,79.70
2022-10-04T05:25:31.651Z,79.70
2022-10-04T05:28:19.929Z,79.70
2022-10-04T05:31:28.739Z,79.80
2022-10-04T05:34:24.568Z,79.70
2022-10-04T05:37:40.489Z,79.80
2022-10-04T05:40:43.163Z,79.80
2022-10-04T05:43:37.070Z,79.80
2022-10-04T05:46:27.807Z,79.80
2022-10-04T05:49:19.510Z,79.80
2022-10-04T05:52:16.310Z,79.80
2022-10-04T05:55:28.475Z,79.80
2022-10-04T05:58:37.044Z,79.80
2022-10-04T06:01:36.663Z,79.90
2022-10-04T06:04:45.225Z,79.80
2022-10-04T06:07:38.931Z,79.90
2022-10-04T06:10:44.771Z,79.90
2022-10-04T06:14:03.669Z,79.90
2022-10-04T06:17:16.323Z,79.90
2022-10-04T06:20:37.810Z,79.90
2022-10-04T06:23:29.872Z,79.90
2022-10-04T06:26:25.206Z,79.90
2022-10-04T06:29:18.119Z,79.90
2022-10-04T06:32:24.324Z,79.90
2022-10-04T06:35:46.344Z,80.00
2022-10-04T06:38:48.995Z,79.90
2022-10-04T06:41:51.838Z,80.00
2022-10-04T06:44:54.804Z,80.00
2022-10-04T06:48:03.609Z,80.00
2022-10-04T06:50:57.655Z,80.10
2022-10-04T06:53:57.560Z,80.10
2022-10-04T06:57:10.163Z,80.10
2022-10-04T07:00:09.395Z,80.10
2022-10-04T07:03:04.125Z,80.10
2022-10-04T07:05:57.080Z,80.20
2022-10-04T07:08:50.235Z,80.70
2022-10-04T07:11:46.099Z,80.20
2022-10-04T07:14:39.205Z,80.20
2022-10-04T07:17:33.915Z,80.20
2022-10-04T07:20:27.258Z,80.20
2022-10-04T07:23:28.513Z,80.20
2022-10-04T07:26:24.900Z,80.20
2022-10-04T07:29:24.216Z,80.10
2022-10-04T07:32:22.654Z,80.20
2022-10-04T07:35:32.963Z,80.20
2022-10-04T07:38:27.524Z,80.20
2022-10-04T07:41:24.352Z,80.20
2022-10-04T07:44:18.893Z,80.20
2022-10-04T07:47:19.825Z,80.20
2022-10-04T07:50:29.705Z,80.20
2022-10-04T07:53:22.402Z,80.20
2022-10-04T07:56:18.837Z,80.20
2022-10-04T07:59:23.464Z,80.20
2022-10-04T08:02:25.592Z,80.20
2022-10-04T08:05:23.385Z,80.20
2022-10-04T08:08:37.981Z,80.30
2022-10-04T08:11:37.587Z,80.30
2022-10-04T08:14:31.737Z,80.30
2022-10-04T08:17:30.889Z,80.30
2022-10-04T08:20:36.820Z,80.30
2022-10-04T08:23:53.103Z,80.20
2022-10-04T08:26:56.350Z,80.30
2022-10-04T08:30:13.186Z,80.30
2022-10-04T08:33:11.406Z,80.30
2022-10-04T08:36:12.863Z,80.30
2022-10-04T08:39:02.688Z,80.30
2022-10-04T08:42:25.619Z,80.40
2022-10-04T08:45:53.065Z,80.30
2022-10-04T08:49:10.753Z,80.50
2022-10-04T08:52:37.744Z,80.90
2022-10-04T08:56:01.150Z,80.40
2022-10-04T08:59:10.394Z,80.40
2022-10-04T09:02:33.046Z,80.40
2022-10-04T09:05:55.104Z,80.40
2022-10-04T09:09:17.963Z,80.50
2022-10-04T09:12:24.217Z,80.40
2022-10-04T09:15:43.146Z,80.40
2022-10-04T09:18:49.708Z,80.40
2022-10-04T09:21:51.941Z,80.50
2022-10-04T09:25:04.703Z,80.50
2022-10-04T09:28:15.443Z,80.50
2022-10-04T09:31:23.680Z,80.60
2022-10-04T09:34:37.195Z,80.60
2022-10-04T09:37:45.344Z,80.60
2022-10-04T09:41:07.228Z,80.60
2022-10-04T09:44:46.698Z,80.60
2022-10-04T09:47:45.964Z,80.60
2022-10-04T09:50:53.983Z,80.60
2022-10-04T09:54:15.616Z,80.60
2022-10-04T09:57:15.486Z,80.60
2022-10-04T10:00:25.178Z,80.60
2022-10-04T10:03:35.579Z,80.70
2022-10-04T10:06:42.618Z,80.60
2022-10-04T10:10:10.706Z,80.60
2022-10-04T10:13:43.114Z,80.60
2022-10-04T10:16:44.013Z,80.60
2022-10-04T10:20:00.280Z,80.60
2022-10-04T10:23:27.756Z,80.60
2022-10-04T10:26:53.919Z,80.70
2022-10-04T10:30:21.628Z,80.60
2022-10-04T10:33:34.241Z,80.60
2022-10-04T10:36:53.846Z,80.70
2022-10-04T10:40:21.051Z,80.70
2022-10-04T10:43:42.393Z,80.60
2022-10-04T10:46:58.595Z,80.70
2022-10-04T10:50:00.720Z,80.70
2022-10-04T10:53:18.333Z,80.70
2022-10-04T10:56:39.930Z,80.70
2022-10-04T11:00:15.103Z,80.60
2022-10-04T11:03:36.343Z,80.70
2022-10-04T11:06:40.550Z,80.70
2022-10-04T11:09:34.035Z,80.70
2022-10-04T11:12:53.964Z,80.80
2022-10-04T11:16:01.273Z,80.70
2022-10-04T11:19:34.171Z,80.80
2022-10-04T11:22:55.909Z,80.70
2022-10-04T11:26:09.590Z,80.70
2022-10-04T11:29:10.672Z,80.70
2022-10-04T11:32:41.066Z,80.80
2022-10-04T11:35:54.852Z,80.80
2022-10-04T11:39:05.843Z,80.80
2022-10-04T11:42:02.728Z,80.80
2022-10-04T11:45:08.812Z,80.80
2022-10-04T11:48:11.584Z,80.80
2022-10-04T11:51:29.758Z,80.80
2022-10-04T11:54:47.915Z,80.80
2022-10-04T11:57:43.299Z,80.90
2022-10-04T12:00:55.496Z,80.80
2022-10-04T12:04:07.272Z,80.90
2022-10-04T12:07:09.594Z,80.90
2022-10-04T12:10:10.764Z,80.90
2022-10-04T12:13:24.776Z,80.90
2022-10-04T12:16:34.325Z,80.90
2022-10-04T12:19:52.563Z,80.90
2022-10-04T12:23:04.462Z,80.90
2022-10-04T12:26:47.923Z,80.90
2022-10-04T12:30:26.701Z,80.90
2022-10-04T12:33:19.377Z,80.90
2022-10-04T12:36:25.176Z,81.50
2022-10-04T12:39:27.413Z,80.90
2022-10-04T12:42:30.421Z,81.00
2022-10-04T12:45:48.258Z,81.00
2022-10-04T12:48:54.175Z,81.00
2022-10-04T12:51:54.420Z,81.00
2022-10-04T12:54:45.300Z,81.00
2022-10-04T12:57:45.459Z,81.00
2022-10-04T13:00:42.579Z,81.00
2022-10-04T13:03:40.386Z,81.00
2022-10-04T13:06:42.588Z,81.00
2022-10-04T13:09:59.753Z,81.00
2022-10-04T13:13:44.740Z,81.00
2022-10-04T13:20:16.325Z,81.00
2022-10-04T13:23:14.867Z,81.00
2022-10-04T13:26:16.885Z,81.10
2022-10-04T13:29:13.238Z,81.10
2022-10-04T13:32:11.742Z,81.00
2022-10-04T13:35:09.409Z,81.00
2022-10-04T13:38:19.729Z,81.00
2022-10-04T13:41:19.914Z,81.00
2022-10-04T13:44:40.786Z,81.10
2022-10-04T13:47:57.684Z,81.10
2022-10-04T13:51:00.207Z,81.10
2022-10-04T13:54:18.835Z,81.10
2022-10-04T13:57:21.758Z,81.10
2022-10-04T14:00:15.158Z,81.10
2022-10-04T14:03:27.037Z,81.00
2022-10-04T14:06:48.052Z,81.10
2022-10-04T14:09:46.960Z,81.10
2022-10-04T14:13:10.693Z,81.10
2022-10-04T14:16:34.584Z,81.10
2022-10-04T14:19:59.383Z,81.10
2022-10-04T14:23:21.127Z,81.10
2022-10-04T14:26:16.578Z,81.10
2022-10-04T14:29:28.879Z,81.10
2022-10-04T14:32:42.979Z,81.10
2022-10-04T14:35:35.859Z,81.10
2022-10-04T14:38:56.195Z,81.10
2022-10-04T14:42:21.749Z,81.10
2022-10-04T14:45:28.127Z,81.10
2022-10-04T14:48:37.066Z,81.10
2022-10-04T14:51:56.063Z,81.10
2022-10-04T14:54:54.357Z,81.20
2022-10-04T14:58:03.323Z,81.20
2022-10-04T15:01:08.898Z,81.20
2022-10-04T15:04:20.629Z,81.20
2022-10-04T15:07:21.536Z,81.20
2022-10-04T15:10:19.351Z,81.10
2022-10-04T15:13:19.163Z,81.20
2022-10-04T15:16:18.358Z,81.10
2022-10-04T15:19:13.450Z,81.10
2022-10-04T15:22:12.298Z,81.10
2022-10-04T15:25:03.568Z,81.20
2022-10-04T15:27:58.021Z,81.10
2022-10-04T15:30:55.261Z,81.10
2022-10-04T15:33:56.314Z,81.10
2022-10-04T15:37:08.158Z,81.00
2022-10-04T15:40:15.516Z,81.10
2022-10-04T15:43:25.483Z,81.00
2022-10-04T15:46:43.838Z,80.90
2022-10-04T15:49:52.668Z,80.90
2022-10-04T15:52:54.499Z,80.90
2022-10-04T15:56:06.898Z,80.90
2022-10-04T15:59:13.706Z,80.90
2022-10-04T16:02:29.733Z,80.90
2022-10-04T16:05:32.806Z,80.80
2022-10-04T16:08:47.200Z,80.80
2022-10-04T16:12:20.364Z,80.80
2022-10-04T16:15:19.865Z,80.80
2022-10-04T16:18:30.894Z,80.80
2022-10-04T16:21:29.895Z,80.80
2022-10-04T16:24:51.519Z,80.80
2022-10-04T16:27:59.348Z,80.80
2022-10-04T16:31:10.752Z,80.90
2022-10-04T16:34:03.953Z,80.90
2022-10-04T16:36:56.199Z,80.80
2022-10-04T16:40:00.398Z,80.80
2022-10-04T16:42:57.411Z,80.90
2022-10-04T16:46:04.355Z,80.90
2022-10-04T16:48:57.440Z,80.90
2022-10-04T16:52:03.430Z,81.00
2022-10-04T16:55:10.868Z,81.00
2022-10-04T16:58:41.371Z,81.00
2022-10-04T17:02:00.422Z,81.00
2022-10-04T17:05:04.867Z,81.10
2022-10-04T17:08:05.605Z,81.10
2022-10-04T17:11:29.067Z,81.10
2022-10-04T17:14:50.471Z,81.10
2022-10-04T17:17:45.949Z,81.20
2022-10-04T17:20:51.196Z,81.20
2022-10-04T17:24:05.039Z,81.20
2022-10-04T17:27:07.059Z,81.20
2022-10-04T17:30:15.547Z,81.20
2022-10-04T17:33:30.890Z,81.20
2022-10-04T17:36:35.447Z,81.30
2022-10-04T17:39:40.761Z,81.30
2022-10-04T17:42:38.096Z,81.20
2022-10-04T17:45:49.005Z,81.30
2022-10-04T17:49:03.501Z,81.20
2022-10-04T17:52:13.809Z,81.20
2022-10-04T17:55:17.137Z,81.30
2022-10-04T17:58:14.468Z,81.20
2022-10-04T18:01:09.499Z,81.30
2022-10-04T18:04:09.203Z,81.30
2022-10-04T18:07:05.793Z,81.30
2022-10-04T18:09:57.522Z,81.30
2022-10-04T18:12:51.729Z,81.30
2022-10-04T18:15:49.566Z,81.30
2022-10-04T18:18:42.667Z,81.30
2022-10-04T18:21:33.715Z,81.40
2022-10-04T18:24:25.522Z,81.40
2022-10-04T18:27:19.014Z,81.30
2022-10-04T18:30:14.604Z,81.40
2022-10-04T18:33:06.073Z,81.40
2022-10-04T18:36:01.250Z,81.30
2022-10-04T18:39:04.767Z,81.30
2022-10-04T18:42:15.398Z,81.40
2022-10-04T18:45:20.568Z,81.40
2022-10-04T18:48:18.440Z,81.30
2022-10-04T18:51:28.893Z,81.40
2022-10-04T18:54:26.890Z,81.40
2022-10-04T18:57:28.203Z,81.40
2022-10-04T19:00:34.153Z,81.40
2022-10-04T19:03:33.796Z,81.40
2022-10-04T19:06:28.006Z,81.40
2022-10-04T19:09:27.896Z,81.50
2022-10-04T19:12:23.037Z,81.50
2022-10-04T19:15:27.312Z,81.50
2022-10-04T19:18:40.246Z,81.70
2022-10-04T19:21:40.672Z,81.50
2022-10-04T19:24:59.414Z,81.50
2022-10-04T19:27:51.900Z,81.50
2022-10-04T19:31:01.552Z,81.50
2022-10-04T19:33:56.150Z,81.50
2022-10-04T19:36:51.339Z,81.50
2022-10-04T19:39:51.728Z,81.50
2022-10-04T19:42:49.150Z,81.50
2022-10-04T19:45:46.261Z,81.50
2022-10-04T19:48:42.391Z,81.50
2022-10-04T19:51:36.369Z,81.50
2022-10-04T19:54:32.772Z,81.50
2022-10-04T19:57:38.928Z,81.50
2022-10-04T20:00:28.080Z,81.50
2022-10-04T20:03:16.316Z,81.60
2022-10-04T20:06:04.979Z,81.60
2022-10-04T20:09:01.487Z,81.60
2022-10-04T20:11:52.767Z,81.60
2022-10-04T20:14:47.097Z,81.60
2022-10-04T20:17:37.460Z,81.60
2022-10-04T20:21:00.265Z,81.60
2022-10-04T20:23:56.731Z,81.60
2022-10-04T20:26:56.788Z,81.60
2022-10-04T20:30:06.495Z,81.70
2022-10-04T20:32:58.643Z,81.70
2022-10-04T20:36:09.491Z,81.70
2022-10-04T20:39:01.970Z,81.70
2022-10-04T20:42:22.843Z,81.70
2022-10-04T20:45:33.313Z,81.70
2022-10-04T20:48:23.437Z,81.70
2022-10-04T20:51:12.109Z,81.60
2022-10-04T20:54:03.878Z,81.70
2022-10-04T20:56:56.239Z,81.70
2022-10-04T20:59:45.709Z,81.70
2022-10-04T21:02:36.973Z,81.70
2022-10-04T21:05:25.947Z,81.60
2022-10-04T21:08:16.287Z,81.70
2022-10-04T21:11:20.795Z,82.20
2022-10-04T21:14:23.736Z,81.60
2022-10-04T21:17:40.988Z,81.70
2022-10-04T21:20:47.752Z,81.70
2022-10-04T21:23:37.577Z,81.70
2022-10-04T21:26:26.502Z,81.70
2022-10-04T21:29:15.259Z,81.70
2022-10-04T21:32:03.641Z,81.70
2022-10-04T21:34:55.233Z,81.70
2022-10-04T21:37:43.322Z,81.70
2022-10-04T21:40:32.059Z,81.70
2022-10-04T21:43:20.111Z,81.70
2022-10-04T21:46:08.968Z,81.70
2022-10-04T21:48:56.876Z,81.70
2022-10-04T21:51:47.071Z,81.70
2022-10-04T21:54:35.559Z,81.70
2022-10-04T21:57:24.310Z,81.70
2022-10-04T22:00:13.494Z,81.70
2022-10-04T22:03:02.329Z,81.70
2022-10-04T22:05:50.313Z,81.70
2022-10-04T22:08:40.686Z,81.70
2022-10-04T22:11:29.460Z,81.70
2022-10-04T22:14:18.153Z,81.70
2022-10-04T22:17:05.796Z,81.70
2022-10-04T22:19:54.394Z,81.70
2022-10-04T22:22:42.220Z,81.70
2022-10-04T22:25:32.581Z,81.70
2022-10-04T22:28:23.355Z,81.70
2022-10-04T22:31:14.004Z,81.70
2022-10-04T22:34:02.033Z,81.70
2022-10-04T22:36:53.363Z,81.70
2022-10-04T22:39:41.432Z,81.80
2022-10-04T22:42:32.952Z,81.80
2022-10-04T22:45:22.567Z,81.80
2022-10-04T22:48:15.857Z,81.80
2022-10-04T22:51:04.190Z,81.80
2022-10-04T22:53:52.516Z,81.80
2022-10-04T22:56:41.096Z,81.80
2022-10-04T22:59:39.072Z,81.70
2022-10-04T23:02:31.331Z,81.80
2022-10-04T23:05:21.365Z,81.70
2022-10-04T23:08:09.290Z,81.70
2022-10-04T23:10:58.598Z,81.80
2022-10-04T23:13:46.801Z,81.70
2022-10-04T23:16:39.053Z,81.80
2022-10-04T23:19:27.161Z,81.80
2022-10-04T23:22:19.010Z,81.80
2022-10-04T23:25:14.502Z,81.80
2022-10-04T23:28:12.976Z,81.80
2022-10-04T23:31:07.271Z,81.80
2022-10-04T23:33:58.723Z,81.70
2022-10-04T23:36:48.413Z,81.80
2022-10-04T23:39:37.848Z,81.80
2022-10-04T23:42:29.788Z,81.80
2022-10-04T23:45:21.246Z,81.80
2022-10-04T23:48:12.764Z,81.80
2022-10-04T23:51:03.179Z,81.90
2022-10-04T23:53:51.771Z,81.90
2022-10-04T23:56:41.078Z,81.90
2022-10-04T23:59:30.439Z,81.90
